createdAt,value
2022-08-19T00:01:38.771Z,100274.31
2022-08-19T00:04:06.756Z,100284.31
2022-08-19T00:06:34.741Z,100278.84
2022-08-19T00:09:01.351Z,100274.88
2022-08-19T00:11:28.488Z,100265.50
2022-08-19T00:13:56.411Z,100254.22
2022-08-19T00:16:26.509Z,100245.72
2022-08-19T00:18:54.485Z,100236.25
2022-08-19T00:21:21.101Z,100236.47
2022-08-19T00:23:48.117Z,100230.56
2022-08-19T00:26:14.807Z,100234.91
2022-08-19T00:28:42.117Z,100233.31
2022-08-19T00:31:08.938Z,100237.19
2022-08-19T00:33:35.469Z,100241.06
2022-08-19T00:36:03.995Z,100246.06
2022-08-19T00:38:37.279Z,100235.03
2022-08-19T00:41:05.887Z,100235.41
2022-08-19T00:43:32.467Z,100225.25
2022-08-19T00:45:59.045Z,100231.84
2022-08-19T00:48:25.546Z,100226.38
2022-08-19T00:50:54.092Z,100226.38
2022-08-19T00:53:22.547Z,100231.06
2022-08-19T00:55:51.387Z,100224.34
2022-08-19T00:58:19.928Z,100227.09
2022-08-19T01:00:47.491Z,100220.84
2022-08-19T01:03:16.152Z,100220.84
2022-08-19T01:05:46.319Z,100236.06
2022-08-19T01:08:13.047Z,100238.81
2022-08-19T01:10:50.348Z,100235.63
2022-08-19T01:13:18.480Z,100232.09
2022-08-19T01:15:51.300Z,100210.56
2022-08-19T01:18:18.795Z,100213.69
2022-08-19T01:20:46.400Z,100209.78
2022-08-19T01:23:13.644Z,100210.13
2022-08-19T01:25:44.393Z,100222.88
2022-08-19T01:28:33.966Z,100233.38
2022-08-19T01:31:08.190Z,100232.47
2022-08-19T01:33:35.342Z,100239.53
2022-08-19T01:36:06.143Z,100240.22
2022-08-19T01:38:36.229Z,100233.06
2022-08-19T01:41:11.913Z,100230.69
2022-08-19T01:43:38.756Z,100236.16
2022-08-19T01:46:25.696Z,100236.16
2022-08-19T01:48:52.526Z,100241.50
2022-08-19T01:51:19.134Z,100241.38
2022-08-19T01:53:48.243Z,100246.38
2022-08-19T01:56:15.443Z,100231.16
2022-08-19T01:58:48.623Z,100231.81
2022-08-19T02:01:15.229Z,100236.16
2022-08-19T02:03:42.275Z,100230.34
2022-08-19T02:06:09.242Z,100231.16
2022-08-19T02:08:36.901Z,100227.59
2022-08-19T02:11:03.442Z,100231.50
2022-08-19T02:13:30.125Z,100226.38
2022-08-19T02:15:56.692Z,100235.72
2022-08-19T02:18:23.284Z,100245.03
2022-08-19T02:20:54.918Z,100246.97
2022-08-19T02:23:21.544Z,100234.91
2022-08-19T02:25:48.940Z,100230.59
2022-08-19T02:28:18.546Z,100237.09
2022-08-19T02:30:46.136Z,100235.03
2022-08-19T02:33:12.691Z,100248.69
2022-08-19T02:35:42.047Z,100252.56
2022-08-19T02:38:26.959Z,100260.94
2022-08-19T02:40:54.677Z,100254.56
2022-08-19T02:43:21.522Z,100254.56
2022-08-19T02:45:49.300Z,100247.53
2022-08-19T02:48:21.410Z,100245.47
2022-08-19T02:50:53.279Z,100246.63
2022-08-19T02:53:20.304Z,100256.19
2022-08-19T02:55:47.575Z,100240.59
2022-08-19T02:58:14.791Z,100249.47
2022-08-19T03:00:49.905Z,100246.50
2022-08-19T03:03:17.271Z,100255.03
2022-08-19T03:05:48.301Z,100252.78
2022-08-19T03:08:23.669Z,100248.88
2022-08-19T03:10:50.173Z,100237.53
2022-08-19T03:13:17.748Z,100240.25
2022-08-19T03:15:45.190Z,100235.69
2022-08-19T03:18:12.288Z,100240.81
2022-08-19T03:20:46.720Z,100234.91
2022-08-19T03:23:13.877Z,100235.69
2022-08-19T03:25:43.064Z,100234.13
2022-08-19T03:28:12.886Z,100240.25
2022-08-19T03:30:43.552Z,100246.41
2022-08-19T03:33:11.334Z,100249.34
2022-08-19T03:35:46.055Z,100254.22
2022-08-19T03:38:12.565Z,100254.13
2022-08-19T03:40:39.140Z,100252.06
2022-08-19T03:43:06.681Z,100254.69
2022-08-19T03:45:33.199Z,100261.16
2022-08-19T03:48:00.034Z,100249.31
2022-08-19T03:50:26.521Z,100253.19
2022-08-19T03:52:53.421Z,100248.38
2022-08-19T03:55:20.285Z,100256.94
2022-08-19T03:57:49.486Z,100263.41
2022-08-19T04:00:16.295Z,100266.00
2022-08-19T04:02:58.497Z,100275.00
2022-08-19T04:05:29.560Z,100273.88
2022-08-19T04:08:00.085Z,100270.69
2022-08-19T04:10:27.547Z,100270.69
2022-08-19T04:12:54.148Z,100272.72
2022-08-19T04:15:21.804Z,100273.88
2022-08-19T04:17:48.607Z,100284.78
2022-08-19T04:20:15.399Z,100277.72
2022-08-19T04:22:41.869Z,100274.66
2022-08-19T04:25:08.612Z,100275.44
2022-08-19T04:27:35.353Z,100269.19
2022-08-19T04:30:02.466Z,100265.31
2022-08-19T04:32:29.019Z,100262.81
2022-08-19T04:35:02.156Z,100267.34
2022-08-19T04:37:44.072Z,100267.69
2022-08-19T04:40:29.477Z,100272.03
2022-08-19T04:42:56.170Z,100265.88
2022-08-19T04:45:23.266Z,100266.34
2022-08-19T04:47:58.051Z,100266.66
2022-08-19T04:50:27.115Z,100266.56
2022-08-19T04:52:54.196Z,100262.69
2022-08-19T04:55:21.144Z,100262.03
2022-08-19T04:57:47.651Z,100273.88
2022-08-19T05:00:14.608Z,100279.88
2022-08-19T05:02:41.519Z,100277.28
2022-08-19T05:05:08.286Z,100277.75
2022-08-19T05:07:35.496Z,100278.66
2022-08-19T05:10:02.234Z,100279.34
2022-08-19T05:12:29.828Z,100271.31
2022-08-19T05:14:57.810Z,100272.34
2022-08-19T05:17:27.664Z,100260.72
2022-08-19T05:20:14.057Z,100266.97
2022-08-19T05:22:41.042Z,100279.50
2022-08-19T05:25:13.792Z,100288.25
2022-08-19T05:27:41.016Z,100298.66
2022-08-19T05:30:07.810Z,100282.34
2022-08-19T05:32:34.357Z,100280.88
2022-08-19T05:35:00.855Z,100291.91
2022-08-19T05:37:28.487Z,100285.88
2022-08-19T05:39:55.735Z,100295.09
2022-08-19T05:42:23.860Z,100295.22
2022-08-19T05:44:51.343Z,100305.78
2022-08-19T05:47:19.778Z,100308.03
2022-08-19T05:49:46.656Z,100311.22
2022-08-19T05:52:14.456Z,100313.28
2022-08-19T05:54:45.987Z,100323.19
2022-08-19T05:57:15.120Z,100332.28
2022-08-19T05:59:42.530Z,100331.59
2022-08-19T06:02:09.295Z,100339.34
2022-08-19T06:04:35.935Z,100344.81
2022-08-19T06:07:12.613Z,100348.09
2022-08-19T06:09:39.834Z,100352.19
2022-08-19T06:12:06.702Z,100356.31
2022-08-19T06:14:35.509Z,100359.69
2022-08-19T06:17:07.536Z,100357.66
2022-08-19T06:19:34.352Z,100369.44
2022-08-19T06:22:01.650Z,100367.75
2022-08-19T06:24:29.835Z,100367.91
2022-08-19T06:27:00.776Z,100360.09
2022-08-19T06:29:28.927Z,100369.00
2022-08-19T06:31:57.256Z,100366.44
2022-08-19T06:34:24.298Z,100371.41
2022-08-19T06:36:52.231Z,100367.97
2022-08-19T06:39:20.457Z,100373.34
2022-08-19T06:41:52.443Z,100373.56
2022-08-19T06:44:23.060Z,100372.38
2022-08-19T06:46:54.762Z,100380.88
2022-08-19T06:49:21.986Z,100369.72
2022-08-19T06:51:49.484Z,100374.94
2022-08-19T06:54:19.247Z,100373.44
2022-08-19T06:56:46.840Z,100379.19
2022-08-19T06:59:14.643Z,100392.00
2022-08-19T07:01:47.528Z,100384.91
2022-08-19T07:04:15.165Z,100386.25
2022-08-19T07:06:44.096Z,100388.47
2022-08-19T07:09:12.535Z,100388.66
2022-08-19T07:11:39.114Z,100384.91
2022-08-19T07:14:18.928Z,100379.66
2022-08-19T07:16:46.838Z,100378.94
2022-08-19T07:19:16.164Z,100380.72
2022-08-19T07:21:45.948Z,100381.06
2022-08-19T07:24:13.294Z,100383.84
2022-08-19T07:26:42.213Z,100392.13
2022-08-19T07:29:09.345Z,100388.22
2022-08-19T07:31:38.815Z,100390.44
2022-08-19T07:34:09.787Z,100389.53
2022-08-19T07:36:39.235Z,100391.91
2022-08-19T07:39:07.699Z,100385.69
2022-08-19T07:41:36.467Z,100388.44
2022-08-19T07:44:04.851Z,100394.44
2022-08-19T07:46:32.191Z,100390.75
2022-08-19T07:49:01.390Z,100392.75
2022-08-19T07:51:36.986Z,100390.63
2022-08-19T07:54:04.456Z,100389.72
2022-08-19T07:56:31.104Z,100384.88
2022-08-19T07:58:57.701Z,100395.31
2022-08-19T08:01:26.583Z,100387.56
2022-08-19T08:04:12.069Z,100390.75
2022-08-19T08:06:57.335Z,100378.91
2022-08-19T08:09:26.754Z,100382.38
2022-08-19T08:11:55.088Z,100381.22
2022-08-19T08:14:29.072Z,100383.09
2022-08-19T08:17:02.105Z,100384.31
2022-08-19T08:19:29.366Z,100378.81
2022-08-19T08:21:56.964Z,100379.03
2022-08-19T08:24:28.600Z,100370.88
2022-08-19T08:26:57.695Z,100377.31
2022-08-19T08:29:26.130Z,100380.66
2022-08-19T08:31:58.642Z,100376.75
2022-08-19T08:34:26.808Z,100377.16
2022-08-19T08:36:53.343Z,100377.22
2022-08-19T08:39:21.649Z,100376.09
2022-08-19T08:41:57.714Z,100377.44
2022-08-19T08:44:28.959Z,100378.28
2022-08-19T08:47:02.548Z,100363.81
2022-08-19T08:49:44.991Z,100363.25
2022-08-19T08:52:14.826Z,100358.91
2022-08-19T08:54:54.756Z,100361.25
2022-08-19T08:57:42.458Z,100366.16
2022-08-19T09:00:15.132Z,100372.63
2022-08-19T09:02:43.337Z,100380.13
2022-08-19T09:05:11.077Z,100384.66
2022-08-19T09:07:52.253Z,100374.19
2022-08-19T09:10:21.881Z,100368.91
2022-08-19T09:13:09.438Z,100350.94
2022-08-19T09:15:39.447Z,100351.69
2022-08-19T09:18:07.352Z,100352.31
2022-08-19T09:20:34.201Z,100349.81
2022-08-19T09:23:00.717Z,100354.69
2022-08-19T09:25:29.567Z,100361.00
2022-08-19T09:28:01.238Z,100354.66
2022-08-19T09:30:31.394Z,100356.22
2022-08-19T09:32:57.982Z,100359.28
2022-08-19T09:35:25.715Z,100353.81
2022-08-19T09:37:57.725Z,100348.63
2022-08-19T09:40:27.234Z,100348.53
2022-08-19T09:42:58.139Z,100357.47
2022-08-19T09:45:24.920Z,100349.22
2022-08-19T09:47:53.811Z,100355.34
2022-08-19T09:50:21.386Z,100358.19
2022-08-19T09:52:55.179Z,100355.75
2022-08-19T09:55:24.661Z,100346.38
2022-08-19T09:57:59.260Z,100344.19
2022-08-19T10:00:25.774Z,100347.88
2022-08-19T10:02:53.275Z,100354.13
2022-08-19T10:05:38.586Z,100357.44
2022-08-19T10:08:13.522Z,100352.03
2022-08-19T10:10:43.204Z,100347.19
2022-08-19T10:13:10.094Z,100338.22
2022-08-19T10:15:47.065Z,100346.53
2022-08-19T10:18:13.963Z,100344.19
2022-08-19T10:20:42.625Z,100343.50
2022-08-19T10:23:10.121Z,100329.53
2022-08-19T10:25:37.005Z,100323.53
2022-08-19T10:28:10.751Z,100337.69
2022-08-19T10:30:37.768Z,100321.91
2022-08-19T10:33:10.817Z,100335.75
2022-08-19T10:35:42.549Z,100330.56
2022-08-19T10:38:29.971Z,100334.13
2022-08-19T10:41:07.680Z,100332.66
2022-08-19T10:43:37.017Z,100325.91
2022-08-19T10:46:04.847Z,100315.31
2022-08-19T10:48:36.406Z,100324.72
2022-08-19T10:51:22.511Z,100313.53
2022-08-19T10:53:50.106Z,100306.50
2022-08-19T10:56:35.530Z,100307.75
2022-08-19T10:59:03.886Z,100298.88
2022-08-19T11:01:31.859Z,100305.34
2022-08-19T11:03:58.591Z,100300.50
2022-08-19T11:06:28.048Z,100304.81
2022-08-19T11:08:55.364Z,100316.50
2022-08-19T11:11:22.464Z,100303.16
2022-08-19T11:13:50.766Z,100304.63
2022-08-19T11:16:19.016Z,100290.38
2022-08-19T11:18:48.034Z,100279.97
2022-08-19T11:21:18.181Z,100272.94
2022-08-19T11:23:47.595Z,100271.31
2022-08-19T11:26:14.656Z,100260.91
2022-08-19T11:28:41.240Z,100257.69
2022-08-19T11:31:12.708Z,100243.53
2022-08-19T11:33:39.312Z,100249.56
2022-08-19T11:36:06.055Z,100245.44
2022-08-19T11:38:32.952Z,100255.25
2022-08-19T11:41:01.425Z,100245.59
2022-08-19T11:43:30.876Z,100238.31
2022-08-19T11:45:59.246Z,100241.56
2022-08-19T11:48:26.341Z,100249.63
2022-08-19T11:50:53.727Z,100244.31
2022-08-19T11:53:21.175Z,100243.72
2022-08-19T11:55:48.408Z,100246.72
2022-08-19T11:58:18.783Z,100255.97
2022-08-19T12:00:46.157Z,100247.19
2022-08-19T12:03:14.069Z,100250.53
2022-08-19T12:05:41.031Z,100251.03
2022-08-19T12:08:07.792Z,100261.22
2022-08-19T12:10:35.305Z,100249.75
2022-08-19T12:13:02.040Z,100258.00
2022-08-19T12:15:29.869Z,100262.84
2022-08-19T12:18:04.184Z,100255.44
2022-08-19T12:20:30.895Z,100246.16
2022-08-19T12:22:57.860Z,100243.13
2022-08-19T12:25:24.458Z,100246.63
2022-08-19T12:27:57.344Z,100247.97
2022-08-19T12:30:24.737Z,100250.81
2022-08-19T12:32:52.221Z,100255.06
2022-08-19T12:35:22.090Z,100250.72
2022-08-19T12:37:57.121Z,100249.72
2022-08-19T12:40:26.409Z,100249.38
2022-08-19T12:42:53.341Z,100250.31
2022-08-19T12:45:20.142Z,100254.53
2022-08-19T12:47:47.899Z,100247.31
2022-08-19T12:50:16.358Z,100244.25
2022-08-19T12:52:43.336Z,100255.53
2022-08-19T12:55:11.569Z,100255.44
2022-08-19T12:57:38.636Z,100253.00
2022-08-19T13:00:11.681Z,100266.38
2022-08-19T13:02:39.374Z,100263.50
2022-08-19T13:05:09.161Z,100269.16
2022-08-19T13:07:35.844Z,100262.97
2022-08-19T13:10:02.614Z,100270.88
2022-08-19T13:12:29.221Z,100261.84
2022-08-19T13:14:56.343Z,100271.72
2022-08-19T13:17:23.990Z,100274.19
2022-08-19T13:19:51.258Z,100257.28
2022-08-19T13:22:17.937Z,100266.50
2022-08-19T13:24:47.280Z,100262.25
2022-08-19T13:27:14.656Z,100266.25
2022-08-19T13:30:00.445Z,100269.25
2022-08-19T13:32:45.693Z,100260.38
2022-08-19T13:35:16.691Z,100254.75
2022-08-19T13:37:43.804Z,100268.31
2022-08-19T13:40:16.994Z,100259.94
2022-08-19T13:42:44.901Z,100253.03
2022-08-19T13:45:11.873Z,100251.75
2022-08-19T13:47:43.504Z,100246.19
2022-08-19T13:50:11.913Z,100243.03
2022-08-19T13:52:39.280Z,100240.19
2022-08-19T13:55:07.081Z,100236.59
2022-08-19T13:57:33.974Z,100240.81
2022-08-19T14:00:00.910Z,100240.94
2022-08-19T14:02:27.559Z,100230.34
2022-08-19T14:04:54.263Z,100227.44
2022-08-19T14:07:21.229Z,100231.44
2022-08-19T14:09:47.811Z,100225.13
2022-08-19T14:12:28.394Z,100220.22
2022-08-19T14:14:55.879Z,100218.19
2022-08-19T14:17:22.628Z,100216.22
2022-08-19T14:19:49.245Z,100216.41
2022-08-19T14:22:15.893Z,100210.28
2022-08-19T14:24:49.230Z,100196.13
2022-08-19T14:27:15.863Z,100192.47
2022-08-19T14:29:42.724Z,100185.63
2022-08-19T14:32:11.489Z,100191.72
2022-08-19T14:34:43.429Z,100185.97
2022-08-19T14:37:10.484Z,100188.31
2022-08-19T14:39:44.750Z,100191.59
2022-08-19T14:42:11.898Z,100191.66
2022-08-19T14:44:38.499Z,100190.94
2022-08-19T14:47:05.155Z,100189.75
2022-08-19T14:49:35.262Z,100193.38
2022-08-19T14:52:08.954Z,100194.38
2022-08-19T14:54:35.645Z,100195.25
2022-08-19T14:57:02.211Z,100194.31
2022-08-19T14:59:29.429Z,100196.59
2022-08-19T15:01:56.299Z,100192.28
2022-08-19T15:04:22.870Z,100199.75
2022-08-19T15:06:51.577Z,100197.19
2022-08-19T15:09:18.328Z,100191.66
2022-08-19T15:11:44.898Z,100191.91
2022-08-19T15:14:11.446Z,100195.03
2022-08-19T15:16:41.921Z,100202.81
2022-08-19T15:19:08.489Z,100198.75
2022-08-19T15:21:35.206Z,100202.50
2022-08-19T15:24:02.215Z,100204.16
2022-08-19T15:26:32.944Z,100202.69
2022-08-19T15:29:00.355Z,100203.53
2022-08-19T15:31:29.033Z,100199.56
2022-08-19T15:33:58.235Z,100198.72
2022-08-19T15:36:26.280Z,100198.72
2022-08-19T15:38:53.240Z,100198.78
2022-08-19T15:41:24.269Z,100196.78
2022-08-19T15:43:52.194Z,100200.53
2022-08-19T15:46:21.935Z,100208.50
2022-08-19T15:48:55.830Z,100203.78
2022-08-19T15:51:24.481Z,100211.03
2022-08-19T15:53:51.471Z,100207.53
2022-08-19T15:56:18.011Z,100209.56
2022-08-19T15:59:03.224Z,100203.34
2022-08-19T16:01:33.385Z,100201.03
2022-08-19T16:04:23.250Z,100209.34
2022-08-19T16:06:58.098Z,100200.94
2022-08-19T16:09:28.849Z,100201.69
2022-08-19T16:12:02.134Z,100205.25
2022-08-19T16:14:31.150Z,100202.50
2022-08-19T16:16:57.761Z,100198.22
2022-08-19T16:19:25.350Z,100201.81
2022-08-19T16:21:53.005Z,100205.44
2022-08-19T16:24:22.333Z,100203.88
2022-08-19T16:26:49.161Z,100205.91
2022-08-19T16:29:33.465Z,100206.72
2022-08-19T16:32:05.038Z,100206.03
2022-08-19T16:34:32.221Z,100211.63
2022-08-19T16:37:00.351Z,100211.28
2022-08-19T16:39:26.969Z,100214.03
2022-08-19T16:41:54.006Z,100214.81
2022-08-19T16:44:21.118Z,100212.47
2022-08-19T16:46:54.802Z,100210.09
2022-08-19T16:49:53.123Z,100213.25
2022-08-19T16:52:13.046Z,100217.19
2022-08-19T16:54:41.871Z,100221.97
2022-08-19T16:57:12.137Z,100231.84
2022-08-19T16:59:48.417Z,100231.84
2022-08-19T17:02:19.904Z,100234.66
2022-08-19T17:04:57.582Z,100232.28
2022-08-19T17:07:29.388Z,100233.91
2022-08-19T17:10:00.378Z,100225.22
2022-08-19T17:12:30.242Z,100230.38
2022-08-19T17:14:58.530Z,100230.34
2022-08-19T17:17:28.901Z,100230.75
2022-08-19T17:19:55.959Z,100227.59
2022-08-19T17:22:22.503Z,100232.31
2022-08-19T17:24:49.294Z,100234.72
2022-08-19T17:27:16.129Z,100236.66
2022-08-19T17:29:46.886Z,100235.47
2022-08-19T17:32:15.229Z,100239.44
2022-08-19T17:34:41.792Z,100248.50
2022-08-19T17:37:08.376Z,100247.69
2022-08-19T17:39:37.802Z,100244.09
2022-08-19T17:42:06.676Z,100252.75
2022-08-19T17:44:36.620Z,100250.38
2022-08-19T17:47:04.277Z,100246.81
2022-08-19T17:49:31.029Z,100247.22
2022-08-19T17:52:00.606Z,100255.88
2022-08-19T17:54:33.329Z,100261.38
2022-08-19T17:57:01.419Z,100253.53
2022-08-19T17:59:30.043Z,100251.94
2022-08-19T18:01:57.448Z,100255.84
2022-08-19T18:04:24.993Z,100257.41
2022-08-19T18:06:53.536Z,100253.47
2022-08-19T18:09:23.916Z,100256.59
2022-08-19T18:11:52.718Z,100251.84
2022-08-19T18:14:20.460Z,100258.94
2022-08-19T18:16:47.054Z,100258.06
2022-08-19T18:19:13.790Z,100263.13
2022-08-19T18:21:40.820Z,100267.41
2022-08-19T18:24:07.528Z,100277.56
2022-08-19T18:26:34.893Z,100281.44
2022-08-19T18:29:02.074Z,100267.63
2022-08-19T18:31:29.993Z,100277.38
2022-08-19T18:33:56.739Z,100278.91
2022-08-19T18:36:43.602Z,100283.66
2022-08-19T18:39:29.411Z,100286.75
2022-08-19T18:42:15.013Z,100289.44
2022-08-19T18:45:00.486Z,100293.34
2022-08-19T18:47:45.876Z,100302.34
2022-08-19T18:50:13.105Z,100300.78
2022-08-19T18:52:40.609Z,100305.13
2022-08-19T18:55:07.517Z,100313.38
2022-08-19T18:57:34.265Z,100311.84
2022-08-19T19:00:02.546Z,100317.34
2022-08-19T19:02:29.221Z,100311.81
2022-08-19T19:04:56.142Z,100320.81
2022-08-19T19:07:23.325Z,100316.44
2022-08-19T19:09:52.685Z,100327.88
2022-08-19T19:12:19.352Z,100321.53
2022-08-19T19:14:49.543Z,100337.63
2022-08-19T19:17:16.824Z,100338.38
2022-08-19T19:19:44.090Z,100340.34
2022-08-19T19:22:11.927Z,100341.09
2022-08-19T19:24:39.262Z,100337.88
2022-08-19T19:27:08.318Z,100344.88
2022-08-19T19:29:38.277Z,100350.72
2022-08-19T19:32:07.938Z,100356.16
2022-08-19T19:34:34.955Z,100362.41
2022-08-19T19:37:01.566Z,100360.78
2022-08-19T19:39:34.009Z,100371.34
2022-08-19T19:42:20.081Z,100368.59
2022-08-19T19:44:50.339Z,100378.00
2022-08-19T19:47:18.848Z,100381.09
2022-08-19T19:50:10.668Z,100385.75
2022-08-19T19:52:32.993Z,100391.53
2022-08-19T19:54:59.952Z,100390.91
2022-08-19T19:57:26.925Z,100395.91
2022-08-19T19:59:54.249Z,100399.28
2022-08-19T20:02:22.013Z,100400.34
2022-08-19T20:04:48.854Z,100404.94
2022-08-19T20:07:15.359Z,100406.00
2022-08-19T20:09:58.852Z,100416.06
2022-08-19T20:12:25.747Z,100411.91
2022-08-19T20:14:52.324Z,100422.72
2022-08-19T20:17:20.407Z,100418.59
2022-08-19T20:19:47.988Z,100420.06
2022-08-19T20:22:14.758Z,100428.22
2022-08-19T20:24:42.716Z,100424.63
2022-08-19T20:27:10.679Z,100432.38
2022-08-19T20:29:39.326Z,100440.47
2022-08-19T20:32:09.774Z,100439.25
2022-08-19T20:34:37.087Z,100439.91
2022-08-19T20:37:03.638Z,100437.41
2022-08-19T20:39:30.295Z,100444.34
2022-08-19T20:41:56.855Z,100445.84
2022-08-19T20:44:25.374Z,100454.47
2022-08-19T20:46:55.415Z,100447.28
2022-08-19T20:49:26.968Z,100446.84
2022-08-19T20:51:54.677Z,100459.78
2022-08-19T20:54:21.583Z,100450.69
2022-08-19T20:56:49.381Z,100451.41
2022-08-19T20:59:15.967Z,100456.47
2022-08-19T21:01:42.471Z,100446.19
2022-08-19T21:04:09.017Z,100457.91
2022-08-19T21:06:37.039Z,100457.81
2022-08-19T21:09:03.614Z,100466.41
2022-08-19T21:11:31.098Z,100458.47
2022-08-19T21:13:58.076Z,100462.28
2022-08-19T21:16:25.281Z,100466.97
2022-08-19T21:18:51.889Z,100460.63
2022-08-19T21:21:18.440Z,100461.22
2022-08-19T21:23:45.229Z,100463.91
2022-08-19T21:26:11.858Z,100472.81
2022-08-19T21:28:38.386Z,100460.25
2022-08-19T21:31:06.698Z,100466.09
2022-08-19T21:33:33.294Z,100460.97
2022-08-19T21:36:00.148Z,100466.00
2022-08-19T21:38:27.124Z,100464.69
2022-08-19T21:40:54.175Z,100473.63
2022-08-19T21:43:21.233Z,100478.22
2022-08-19T21:45:48.250Z,100479.38
2022-08-19T21:48:15.048Z,100483.53
2022-08-19T21:50:42.546Z,100481.50
2022-08-19T21:53:11.881Z,100483.81
2022-08-19T21:55:44.029Z,100484.53
2022-08-19T21:58:11.773Z,100482.47
2022-08-19T22:00:38.569Z,100494.59
2022-08-19T22:03:05.454Z,100489.13
2022-08-19T22:05:33.374Z,100491.41
2022-08-19T22:08:00.851Z,100492.44
2022-08-19T22:10:28.883Z,100498.31
2022-08-19T22:12:56.246Z,100489.63
2022-08-19T22:15:24.347Z,100498.81
2022-08-19T22:17:51.192Z,100493.03
2022-08-19T22:20:21.025Z,100494.09
2022-08-19T22:22:49.498Z,100493.66
2022-08-19T22:25:29.382Z,100496.72
2022-08-19T22:28:00.385Z,100496.38
2022-08-19T22:30:27.542Z,100495.03
2022-08-19T22:33:01.355Z,100497.34
2022-08-19T22:35:31.280Z,100501.91
2022-08-19T22:38:02.163Z,100504.91
2022-08-19T22:40:30.549Z,100511.09
2022-08-19T22:43:00.074Z,100514.06
2022-08-19T22:45:27.271Z,100514.75
2022-08-19T22:47:54.211Z,100515.88
2022-08-19T22:50:21.024Z,100513.06
2022-08-19T22:52:51.929Z,100518.44
2022-08-19T22:55:18.730Z,100520.84
2022-08-19T22:57:45.277Z,100522.06
2022-08-19T23:00:13.293Z,100522.06
2022-08-19T23:02:51.576Z,100520.91
2022-08-19T23:05:21.911Z,100519.53
2022-08-19T23:07:53.512Z,100515.31
2022-08-19T23:10:27.437Z,100519.53
2022-08-19T23:12:56.292Z,100518.84
2022-08-19T23:15:25.853Z,100513.81
2022-08-19T23:17:53.601Z,100507.78
2022-08-19T23:20:20.859Z,100508.38
2022-08-19T23:22:50.849Z,100503.59
2022-08-19T23:25:20.768Z,100499.28
2022-08-19T23:28:06.671Z,100501.56
2022-08-19T23:30:34.807Z,100500.41
2022-08-19T23:33:07.663Z,100502.00
2022-08-19T23:35:37.097Z,100499.63
2022-08-19T23:38:04.802Z,100491.66
2022-08-19T23:40:31.447Z,100503.28
2022-08-19T23:42:58.314Z,100503.19
2022-08-19T23:45:25.571Z,100504.66
2022-08-19T23:47:53.423Z,100504.59
2022-08-19T23:50:20.584Z,100499.13
2022-08-19T23:52:51.324Z,100509.59
2022-08-19T23:55:20.012Z,100507.66
2022-08-19T23:57:46.536Z,100508.91
